Latest Weather Observations for Grove

IDT60801

Issued at 2:11 am EST Thursday 28 May 2020 (issued every 10 minutes, with the page automatically refreshed every 10 minutes)

About weather observations | Map of weather stations | Latest weather observations for TAS | Other Formats
Station Details ID: 094220 Name: GROVE (RESEARCH STATION) Lat: -42.99 Lon: 147.07 Height: 65.0 m
Data from the previous 72 hours. | See also: Recent months at Grove
Date/Time
EST
Temp
°C
App
Temp
°C
Dew
Point
°C
Rel
Hum
%
Delta-T
°C
Wind Press
QNH
hPa
Press
MSL
hPa
Rain since
9am
mm
Dir  Spd
km/h
Gust
km/h
Spd
kts
Gust
kts
28/02:00am 13.1 9.1 4.9 57 3.8 N 15 24 8 13 - - 0.0
28/01:30am 13.2 9.7 5.3 58 3.7 NNE 13 22 7 12 - - 0.0
28/01:00am 12.7 10.4 5.7 62 3.3 NNE 7 15 4 8 - - 0.0
28/12:30am 11.3 8.4 6.4 72 2.3 NE 11 17 6 9 - - 0.0
28/12:00am 7.6 5.5 6.5 93 0.5 NE 7 13 4 7 - - 0.0
 
Date/Time
EST
Temp
°C
App
Temp
°C
Dew
Point
°C
Rel
Hum
%
Delta-T
°C
Wind Press
QNH
hPa
Press
MSL
hPa
Rain since
9am
mm
Dir  Spd
km/h
Gust
km/h
Spd
kts
Gust
kts
27/11:30pm 6.6 5.7 5.9 95 0.3 CALM 0 0 0 0 - - 0.0
27/11:00pm 6.6 5.7 6.2 97 0.2 CALM 0 0 0 0 - - 0.0
27/10:30pm 6.4 5.1 6.2 99 0.1 S 2 7 1 4 - - 0.0
27/10:00pm 6.9 5.2 6.0 94 0.4 NNW 4 9 2 5 - - 0.0
27/09:30pm 7.1 5.9 6.4 95 0.3 WNW 2 9 1 5 - - 0.0
27/09:00pm 7.1 5.1 6.4 95 0.3 NNE 6 9 3 5 - - 0.0
27/08:30pm 7.5 6.0 6.9 96 0.3 N 4 7 2 4 - - 0.0
27/08:00pm 8.4 6.4 7.1 91 0.6 SW 7 11 4 6 - - 0.0
27/07:30pm 8.8 7.8 7.3 90 0.7 S 2 11 1 6 - - 0.0
27/07:00pm 8.9 7.2 7.4 90 0.7 SW 6 9 3 5 - - 0.0
27/06:30pm 9.0 6.3 7.3 89 0.8 SW 11 17 6 9 - - 0.0
27/06:00pm 9.2 7.5 7.5 89 0.8 SSW 6 9 3 5 - - 0.0
27/05:30pm 9.4 7.7 7.5 88 0.9 NNE 6 13 3 7 - - 0.0
27/05:00pm 10.6 9.0 8.1 84 1.2 WNW 6 7 3 4 - - 0.0
27/04:30pm 11.3 9.5 8.0 80 1.6 E 7 11 4 6 - - 0.0
27/04:00pm 13.1 11.3 7.1 67 2.9 W 6 9 3 5 - - 0.0
27/03:30pm 15.1 12.4 5.7 53 4.5 WNW 9 13 5 7 - - 0.0
27/03:00pm 15.4 12.2 5.0 50 4.9 WNW 11 20 6 11 - - 0.0
27/02:30pm 15.9 12.0 5.2 49 5.1 NNW 15 26 8 14 - - 0.0
27/02:00pm 16.5 12.7 5.8 49 5.2 NW 15 24 8 13 - - 0.0
27/01:30pm 15.4 12.6 7.1 57 4.1 WNW 11 20 6 11 - - 0.0
27/01:00pm 12.9 10.6 7.4 69 2.7 W 9 17 5 9 - - 0.0
27/12:30pm 12.8 10.9 7.7 71 2.5 SSW 7 17 4 9 - - 0.0
27/12:00pm 9.8 7.5 5.9 77 1.8 WSW 7 13 4 7 - - 0.0
27/11:30am 7.3 4.8 4.8 84 1.1 W 7 9 4 5 - - 0.0
27/11:00am 5.7 2.6 3.8 87 0.8 SW 9 15 5 8 - - 0.0
27/10:30am 4.8 2.2 3.4 91 0.6 W 6 7 3 4 - - 0.0
27/10:00am 3.0 0.3 2.5 96 0.2 WNW 6 7 3 4 - - 0.0
27/09:30am 2.2 - - - - CALM 0 6 0 3 - - 0.0
27/09:00am 1.6 - - - - NW 4 7 2 4 - - 0.2
27/08:30am -0.6 - - - - ESE 2 7 1 4 - - 0.2
27/08:00am -1.7 - - - - ENE 6 7 3 4 - - 0.2
27/07:30am -1.9 - - - - ENE 6 11 3 6 - - 0.2
27/07:00am -2.0 - - - - ENE 4 6 2 3 - - 0.2
27/06:30am -1.9 - - - - ENE 4 7 2 4 - - 0.2
27/06:00am -1.8 - - - - NE 6 9 3 5 - - 0.2
27/05:30am -0.6 - - - - WSW 6 11 3 6 - - 0.2
27/05:00am -1.0 - - - - NNE 6 11 3 6 - - 0.2
27/04:30am -1.1 - - - - NNE 2 9 1 5 - - 0.2
27/04:00am -1.3 - - - - NNW 7 11 4 6 - - 0.2
27/03:30am -1.1 - - - - ENE 6 9 3 5 - - 0.2
27/03:00am -0.4 - - - - W 9 15 5 8 - - 0.2
27/02:30am -1.3 - - - - ESE 2 7 1 4 - - 0.2
27/02:00am -0.8 - - - - W 6 9 3 5 - - 0.2
27/01:30am -0.8 - - - - WSW 7 11 4 6 - - 0.2
27/01:00am -1.4 - - - - W 2 9 1 5 - - 0.2
27/12:30am -1.0 - - - - NE 7 13 4 7 - - 0.2
27/12:00am -1.6 - - - - SSE 6 13 3 7 - - 0.2
 
Date/Time
EST
Temp
°C
App
Temp
°C
Dew
Point
°C
Rel
Hum
%
Delta-T
°C
Wind Press
QNH
hPa
Press
MSL
hPa
Rain since
9am
mm
Dir  Spd
km/h
Gust
km/h
Spd
kts
Gust
kts
26/11:30pm -1.8 - - - - NE 6 9 3 5 - - 0.2
26/11:00pm -1.2 - - - - WNW 4 9 2 5 - - 0.2
26/10:30pm -1.3 - - - - NE 6 9 3 5 - - 0.2
26/10:00pm -1.4 - - - - NE 7 9 4 5 - - 0.2
26/09:30pm -0.9 - - - - CALM 0 6 0 3 - - 0.2
26/09:00pm -0.2 - - - - CALM 0 0 0 0 - - 0.2
26/08:30pm 0.4 - - - - CALM 0 0 0 0 - - 0.2
26/08:00pm 0.3 - - - - NE 6 6 3 3 - - 0.2
26/07:30pm 1.6 -1.4 1.1 96 0.2 N 6 6 3 3 - - 0.2
26/07:00pm 1.6 -1.4 1.1 96 0.2 N 6 7 3 4 - - 0.2
26/06:30pm 2.1 -1.0 1.3 94 0.3 ENE 7 7 4 4 - - 0.2
26/06:00pm 2.3 -1.1 2.0 98 0.1 NNE 9 11 5 6 - - 0.2
26/05:30pm 3.7 2.2 3.0 95 0.3 CALM 0 0 0 0 - - 0.2
26/05:00pm 4.6 3.3 4.1 97 0.2 CALM 0 0 0 0 - - 0.2
26/04:30pm 6.9 4.7 5.1 88 0.8 NW 6 9 3 5 - - 0.2
26/04:00pm 9.3 6.9 5.1 75 1.9 W 7 9 4 5 - - 0.2
26/03:30pm 11.2 9.8 3.8 60 3.3 CALM 0 0 0 0 - - 0.2
26/03:00pm 11.7 10.4 4.2 60 3.4 CALM 0 0 0 0 - - 0.2
26/02:30pm 10.8 8.3 3.5 60 3.2 WSW 6 7 3 4 - - 0.2
26/02:00pm 9.9 7.2 2.9 62 3.0 W 6 7 3 4 - - 0.2
26/01:30pm 9.0 6.5 3.7 69 2.3 WNW 6 7 3 4 - - 0.2
26/01:00pm 8.3 6.9 3.7 73 2.0 CALM 0 6 0 3 - - 0.2
26/12:30pm 5.4 4.1 4.0 91 0.6 CALM 0 0 0 0 - - 0.2
26/12:00pm 4.5 2.8 4.0 97 0.2 W 2 6 1 3 - - 0.2
26/11:30am 2.8 1.2 2.3 96 0.2 CALM 0 0 0 0 - - 0.2
26/11:00am 1.6 -0.9 1.3 98 0.1 SW 4 7 2 4 - - 0.2
26/10:30am 1.1 -0.8 0.8 98 0.1 CALM 0 0 0 0 - - 0.0
26/10:00am 0.4 -2.7 0.4 100 0.0 N 6 7 3 4 - - 0.0
26/09:30am -0.1 - - - - N 6 7 3 4 - - 0.0
26/09:00am -0.3 - - - - N 4 7 2 4 - - 0.0
26/08:30am -0.5 - - - - NNE 7 9 4 5 - - 0.0
26/08:00am -0.1 - - - - W 4 7 2 4 - - 0.0
26/07:30am -0.2 - - - - NW 4 6 2 3 - - 0.0
26/07:00am -0.1 - - - - NW 7 9 4 5 - - 0.0
26/06:30am 0.2 - - - - NNE 6 7 3 4 - - 0.0
26/06:00am 0.4 -2.7 0.4 100 0.0 N 6 7 3 4 - - 0.0
26/05:30am 0.7 -1.2 0.7 100 0.0 CALM 0 0 0 0 - - 0.0
26/05:00am 0.8 -1.1 0.5 98 0.1 CALM 0 0 0 0 - - 0.0
26/04:30am 0.9 -2.1 0.6 98 0.1 N 6 7 3 4 - - 0.0
26/04:00am 0.9 -2.1 0.6 98 0.1 ENE 6 9 3 5 - - 0.0
26/03:30am 1.0 -0.8 1.0 100 0.0 CALM 0 0 0 0 - - 0.0
26/03:00am 1.0 -2.0 0.7 98 0.1 ENE 6 7 3 4 - - 0.0
26/02:30am 0.7 -2.3 0.7 100 0.0 NE 6 6 3 3 - - 0.0
26/02:00am 0.5 -2.7 0.5 100 0.0 NNE 7 9 4 5 - - 0.0
26/01:30am 0.3 - - - - N 6 7 3 4 - - 0.0
26/01:00am 0.1 - - - - CALM 0 0 0 0 - - 0.0
26/12:30am -0.5 - - - - NNE 4 7 2 4 - - 0.0
26/12:00am -1.0 - - - - CALM 0 0 0 0 - - 0.0
 
Date/Time
EST
Temp
°C
App
Temp
°C
Dew
Point
°C
Rel
Hum
%
Delta-T
°C
Wind Press
QNH
hPa
Press
MSL
hPa
Rain since
9am
mm
Dir  Spd
km/h
Gust
km/h
Spd
kts
Gust
kts
25/11:30pm -1.3 - - - - CALM 0 0 0 0 - - 0.0
25/11:00pm -1.0 - - - - NNE 2 7 1 4 - - 0.0
25/10:30pm -0.5 - - - - CALM 0 0 0 0 - - 0.0
25/10:00pm -0.5 - - - - ENE 6 7 3 4 - - 0.0
25/09:30pm -0.5 - - - - NE 6 7 3 4 - - 0.0
25/09:00pm 0.8 -1.5 0.5 98 0.1 ENE 2 7 1 4 - - 0.0
25/08:30pm 0.8 -1.1 0.5 98 0.1 CALM 0 0 0 0 - - 0.0
25/08:00pm 1.2 -1.7 1.2 100 0.0 ESE 6 7 3 4 - - 0.0
25/07:30pm 1.7 -1.5 0.9 94 0.3 NE 7 9 4 5 - - 0.0
25/07:00pm 2.6 0.6 2.1 96 0.2 NNE 2 6 1 3 - - 0.0
25/06:30pm 2.5 0.4 2.0 96 0.2 NE 2 7 1 4 - - 0.0
25/06:00pm 4.1 1.6 3.6 97 0.2 NNE 6 7 3 4 - - 0.0
25/05:30pm 4.9 2.4 3.5 91 0.6 NE 6 7 3 4 - - 0.0
25/05:00pm 5.6 4.2 3.7 87 0.8 CALM 0 0 0 0 - - 0.0
25/04:30pm 7.0 4.5 4.7 85 1.0 NW 7 9 4 5 - - 0.0
25/04:00pm 9.8 7.3 4.7 70 2.3 W 7 9 4 5 - - 0.0
25/03:30pm 10.3 7.7 4.2 66 2.7 WSW 7 11 4 6 - - 0.0
25/03:00pm 11.3 9.6 4.2 61 3.2 WSW 2 7 1 4 - - 0.0
25/02:30pm 10.7 8.3 4.2 64 2.9 SW 6 9 3 5 - - 0.0
25/02:00pm 9.9 7.4 4.0 67 2.6 WSW 6 9 3 5 - - 0.0
25/01:30pm 10.5 7.9 3.2 60 3.2 N 6 11 3 6 - - 0.0
25/01:00pm 9.5 7.4 4.1 69 2.4 SE 4 7 2 4 - - 0.0
25/12:30pm 9.5 7.1 4.3 70 2.3 S 6 7 3 4 - - 0.0
25/12:00pm 7.5 4.4 3.8 77 1.6 SSW 9 13 5 7 - - 0.0
25/11:30am 7.4 4.9 3.9 78 1.5 WSW 6 9 3 5 - - 0.0
25/11:00am 6.8 5.1 3.8 81 1.3 SSE 2 7 1 4 - - 0.0
25/10:30am 6.1 3.6 3.5 83 1.1 S 6 9 3 5 - - 0.0
25/10:00am 5.8 3.1 3.7 86 0.9 WSW 7 9 4 5 - - 0.0
25/09:30am 5.8 4.4 3.7 86 0.9 CALM 0 0 0 0 - - 0.0
25/09:00am 5.4 3.6 3.2 86 0.9 NNW 2 6 1 3 - - 0.6
25/08:30am 5.1 3.7 3.4 89 0.7 CALM 0 0 0 0 - - 0.6
25/08:00am 4.8 2.0 2.1 83 1.1 WNW 6 11 3 6 - - 0.6
25/07:30am 4.8 1.9 2.6 86 0.9 W 7 11 4 6 - - 0.6
25/07:00am 5.3 2.7 3.1 86 0.9 W 6 9 3 5 - - 0.6
25/06:30am 5.7 3.1 3.3 84 1.0 W 6 7 3 4 - - 0.6
25/06:00am 6.1 4.3 5.2 94 0.4 WSW 4 7 2 4 - - 0.6
25/05:30am 6.1 5.0 5.2 94 0.4 CALM 0 0 0 0 - - 0.6
25/05:00am 6.1 5.1 5.6 97 0.2 CALM 0 0 0 0 - - 0.6
25/04:30am 6.2 5.2 5.8 97 0.2 CALM 0 0 0 0 - - 0.6
25/04:00am 6.3 5.4 5.9 97 0.2 CALM 0 0 0 0 - - 0.6
25/03:30am 6.3 5.4 5.9 97 0.2 CALM 0 0 0 0 - - 0.6
25/03:00am 6.4 5.0 5.7 95 0.3 SW 2 6 1 3 - - 0.6
25/02:30am 6.4 4.3 5.7 95 0.3 SW 6 7 3 4 - - 0.6

Other formats

Comma delimited format used in spreadsheet applications
http://www.bom.gov.au/fwo/IDT60801/IDT60801.95977.axf

JavaScript Object Notation format (JSON) in row-major order
http://www.bom.gov.au/fwo/IDT60801/IDT60801.95977.json

Data quality

Most of these data are generated automatically and are frequently updated. Quality checks on data are not normally performed. It is possible for incorrect values to appear. Refer to information at About Latest Weather Observations and please check the disclaimer before using these data.